Time;durP1;ratioP1;P1;durP2;ratioP2;P2;SDS_P1;SDS_P2;PMS_P1;PMS_P2;Temp;Humidity;BMP_temperature;BMP_pressure;BME280_temperature;BME280_humidity;BME280_pressure;Samples;Min_cycle;Max_cycle;Signal;HPM_P1;HPM_P2
2022/07/02 00:01:22;;;;;;;10.48;6.60;;;;;;;;;;5038271;28;20044;-74
2022/07/02 00:03:51;;;;;;;12.95;6.65;;;;;;;;;;5014368;28;20041;-74
2022/07/02 00:06:18;;;;;;;9.27;6.53;;;;;;;;;;5024891;28;20037;-73
2022/07/02 00:08:46;;;;;;;8.70;6.72;;;;;;;;;;5005697;28;20376;-75
2022/07/02 00:11:14;;;;;;;12.82;6.53;;;;;;;;;;5014522;28;20048;-78
2022/07/02 00:13:41;;;;;;;10.82;6.60;;;;;;;;;;5029861;28;20026;-75
2022/07/02 00:16:10;;;;;;;7.90;6.65;;;;;;;;;;5026305;28;20022;-75
2022/07/02 00:18:36;;;;;;;13.70;8.48;;;;;;;;;;5018591;28;20052;-74
2022/07/02 00:21:03;;;;;;;14.75;10.85;;;;;;;;;;5015891;28;20382;-75
2022/07/02 00:23:29;;;;;;;10.95;8.52;;;;;;;;;;5031717;28;20037;-74
2022/07/02 00:25:58;;;;;;;13.20;9.65;;;;;;;;;;5021743;28;20083;-73
2022/07/02 00:28:25;;;;;;;13.93;7.68;;;;;;;;;;5035442;28;20124;-74
2022/07/02 00:30:52;;;;;;;12.82;7.13;;;;;;;;;;5046224;28;21980;-74
2022/07/02 00:33:19;;;;;;;13.30;7.95;;;;;;;;;;5033328;28;20082;-74
2022/07/02 00:35:46;;;;;;;12.63;8.60;;;;;;;;;;5031204;28;20044;-73
2022/07/02 00:38:12;;;;;;;13.38;9.48;;;;;;;;;;5033115;28;20026;-74
2022/07/02 00:40:40;;;;;;;18.10;11.20;;;;;;;;;;5031177;28;20026;-72
2022/07/02 00:43:07;;;;;;;14.45;10.73;;;;;;;;;;5022968;28;20040;-74
2022/07/02 00:45:34;;;;;;;16.60;10.85;;;;;;;;;;5026554;28;20391;-75
2022/07/02 00:48:00;;;;;;;16.73;10.95;;;;;;;;;;5027214;28;20029;-76
2022/07/02 00:50:27;;;;;;;14.18;11.15;;;;;;;;;;5027457;28;20022;-75
2022/07/02 00:52:53;;;;;;;18.83;10.35;;;;;;;;;;5020146;28;20061;-75
2022/07/02 00:55:19;;;;;;;24.40;10.77;;;;;;;;;;5032665;28;20030;-74
2022/07/02 00:57:48;;;;;;;19.20;10.00;;;;;;;;;;5014547;28;20112;-76
2022/07/02 01:00:17;;;;;;;27.77;8.93;;;;;;;;;;5023245;28;20478;-74
2022/07/02 01:02:44;;;;;;;35.50;9.13;;;;;;;;;;5034273;28;20041;-73
2022/07/02 01:05:10;;;;;;;33.28;7.70;;;;;;;;;;5031753;28;20096;-74
2022/07/02 01:07:36;;;;;;;30.92;7.75;;;;;;;;;;5018133;28;20030;-74
2022/07/02 01:10:18;;;;;;;27.67;6.97;;;;;;;;;;5026766;28;20021;-74
2022/07/02 01:12:51;;;;;;;31.33;6.97;;;;;;;;;;5032525;28;20401;-75
2022/07/02 01:15:17;;;;;;;;;;;;;;;;;;5033301;28;20029;-74
2022/07/02 01:17:43;;;;;;;29.33;6.47;;;;;;;;;;5028132;28;19908;-75
2022/07/02 01:20:10;;;;;;;25.98;5.68;;;;;;;;;;5028810;28;20422;-78
2022/07/02 01:22:38;;;;;;;31.25;6.35;;;;;;;;;;5032153;28;20095;-72
2022/07/02 01:25:05;;;;;;;25.92;5.22;;;;;;;;;;5010754;28;20041;-74
2022/07/02 01:27:33;;;;;;;24.65;5.50;;;;;;;;;;5035794;28;20033;-73
2022/07/02 01:29:59;;;;;;;23.65;4.53;;;;;;;;;;5008454;28;20021;-73
2022/07/02 01:32:26;;;;;;;25.50;4.75;;;;;;;;;;5026263;28;20155;-74
2022/07/02 01:35:01;;;;;;;23.38;4.80;;;;;;;;;;5032583;28;20156;-72
2022/07/02 01:37:27;;;;;;;16.85;4.22;;;;;;;;;;5033295;28;20478;-73
2022/07/02 01:39:54;;;;;;;20.27;4.57;;;;;;;;;;5012542;28;20022;-74
2022/07/02 01:42:20;;;;;;;24.58;5.50;;;;;;;;;;5021653;28;20029;-74
2022/07/02 01:44:46;;;;;;;22.38;4.40;;;;;;;;;;5032515;28;20053;-71
2022/07/02 01:47:14;;;;;;;22.48;4.78;;;;;;;;;;5034162;28;20443;-74
2022/07/02 01:49:41;;;;;;;21.05;4.75;;;;;;;;;;5011182;28;20025;-72
2022/07/02 01:52:08;;;;;;;19.38;5.10;;;;;;;;;;5025088;28;20044;-74
2022/07/02 01:54:34;;;;;;;14.55;4.55;;;;;;;;;;5026032;28;20026;-72
2022/07/02 01:57:01;;;;;;;19.88;5.25;;;;;;;;;;5026477;28;20491;-73
2022/07/02 01:59:28;;;;;;;17.73;4.60;;;;;;;;;;5009005;28;20079;-74
2022/07/02 02:01:54;;;;;;;16.75;4.30;;;;;;;;;;5012202;28;20057;-74
2022/07/02 02:04:20;;;;;;;13.65;4.63;;;;;;;;;;5029073;28;20044;-73
2022/07/02 02:06:47;;;;;;;16.40;4.68;;;;;;;;;;5023085;28;20037;-74
2022/07/02 02:09:13;;;;;;;10.77;4.30;;;;;;;;;;5025616;28;20096;-73
2022/07/02 02:11:39;;;;;;;12.70;4.35;;;;;;;;;;5031516;28;20060;-73
2022/07/02 02:14:05;;;;;;;11.20;4.45;;;;;;;;;;5032661;28;20446;-74
2022/07/02 02:16:31;;;;;;;17.45;5.03;;;;;;;;;;5032401;28;20048;-71
2022/07/02 02:18:58;;;;;;;25.60;4.97;;;;;;;;;;5031270;28;20033;-74
2022/07/02 02:21:25;;;;;;;23.13;4.68;;;;;;;;;;5012673;28;20026;-74
2022/07/02 02:23:52;;;;;;;12.23;4.63;;;;;;;;;;5036051;28;20041;-75
2022/07/02 02:26:18;;;;;;;19.60;4.68;;;;;;;;;;5036745;28;20014;-74
2022/07/02 02:28:44;;;;;;;17.67;4.32;;;;;;;;;;5018368;28;20071;-73
2022/07/02 02:31:10;;;;;;;17.42;4.60;;;;;;;;;;5033267;28;20501;-73
2022/07/02 02:33:36;;;;;;;19.88;4.25;;;;;;;;;;5035564;28;20049;-74
2022/07/02 02:36:02;;;;;;;15.32;4.03;;;;;;;;;;5035797;28;20030;-74
2022/07/02 02:38:28;;;;;;;7.28;3.45;;;;;;;;;;5035663;28;20091;-73
2022/07/02 02:41:24;;;;;;;12.68;3.92;;;;;;;;;;5032243;28;20113;-72
2022/07/02 02:43:50;;;;;;;14.98;3.80;;;;;;;;;;4951742;29;20050;-73
2022/07/02 02:46:16;;;;;;;10.65;3.63;;;;;;;;;;4955107;29;20070;-73
2022/07/02 02:48:42;;;;;;;9.55;3.67;;;;;;;;;;4949775;29;20505;-74
2022/07/02 02:51:11;;;;;;;15.38;3.25;;;;;;;;;;4958226;29;20031;-73
2022/07/02 02:53:37;;;;;;;16.38;3.40;;;;;;;;;;4936383;29;20405;-72
2022/07/02 02:56:04;;;;;;;15.35;3.47;;;;;;;;;;4955289;29;20110;-74
2022/07/02 02:58:30;;;;;;;12.55;3.50;;;;;;;;;;4955687;29;20034;-73
2022/07/02 03:00:57;;;;;;;12.48;3.53;;;;;;;;;;4953188;29;20036;-73
2022/07/02 03:03:23;;;;;;;14.60;3.88;;;;;;;;;;4946276;29;20044;-72
2022/07/02 03:05:49;;;;;;;10.38;3.63;;;;;;;;;;4950649;29;20035;-72
2022/07/02 03:08:15;;;;;;;20.35;3.58;;;;;;;;;;4954846;29;20094;-73
2022/07/02 03:10:41;;;;;;;14.77;3.30;;;;;;;;;;4954702;29;20110;-73
2022/07/02 03:13:07;;;;;;;13.32;3.40;;;;;;;;;;4953736;28;20155;-71
2022/07/02 03:15:33;;;;;;;12.65;3.40;;;;;;;;;;4943141;29;20054;-72
2022/07/02 03:18:00;;;;;;;16.77;3.20;;;;;;;;;;4955009;29;20150;-74
2022/07/02 03:20:26;;;;;;;10.50;3.30;;;;;;;;;;5000499;28;20030;-74
2022/07/02 03:22:52;;;;;;;14.10;3.25;;;;;;;;;;5034970;28;20030;-73
2022/07/02 03:25:23;;;;;;;14.30;3.83;;;;;;;;;;5032548;28;20026;-74
2022/07/02 03:27:55;;;;;;;9.43;3.17;;;;;;;;;;5019901;28;20030;-73
2022/07/02 03:30:21;;;;;;;11.40;3.00;;;;;;;;;;5034945;28;20052;-73
2022/07/02 03:32:47;;;;;;;11.27;3.08;;;;;;;;;;5015755;28;20494;-73
2022/07/02 03:35:13;;;;;;;11.32;3.10;;;;;;;;;;5024280;28;20080;-74
2022/07/02 03:37:39;;;;;;;11.60;3.80;;;;;;;;;;5034409;28;20029;-74
2022/07/02 03:40:05;;;;;;;11.35;3.35;;;;;;;;;;5026600;28;20045;-74
2022/07/02 03:42:31;;;;;;;9.45;3.10;;;;;;;;;;5033317;28;20026;-73
2022/07/02 03:47:37;;;;;;;12.65;3.13;;;;;;;;;;5139891;23;20108;-74
2022/07/02 03:50:03;;;;;;;16.45;3.78;;;;;;;;;;5049820;28;20029;-74
2022/07/02 03:52:29;;;;;;;8.07;3.08;;;;;;;;;;5049779;28;20059;-73
2022/07/02 03:54:55;;;;;;;11.90;3.15;;;;;;;;;;5043225;28;20030;-75
2022/07/02 03:57:21;;;;;;;14.85;3.53;;;;;;;;;;5035357;28;20100;-76
2022/07/02 03:59:47;;;;;;;12.20;3.40;;;;;;;;;;5043189;28;20546;-75
2022/07/02 04:02:13;;;;;;;5.72;3.10;;;;;;;;;;5043603;28;20397;-75
2022/07/02 04:04:39;;;;;;;11.30;3.22;;;;;;;;;;5038356;28;20061;-74
2022/07/02 04:07:05;;;;;;;15.13;3.45;;;;;;;;;;5034238;28;20057;-74
2022/07/02 04:09:31;;;;;;;6.88;3.03;;;;;;;;;;5039091;28;20124;-75
2022/07/02 04:11:57;;;;;;;12.77;3.30;;;;;;;;;;5034084;28;20068;-75
2022/07/02 04:14:23;;;;;;;14.00;3.47;;;;;;;;;;5049940;28;20083;-74
2022/07/02 04:16:49;;;;;;;9.80;3.75;;;;;;;;;;5044771;28;20048;-74
2022/07/02 04:19:15;;;;;;;7.60;3.15;;;;;;;;;;5042335;28;20017;-74
2022/07/02 04:21:42;;;;;;;9.38;3.20;;;;;;;;;;5032031;28;20042;-77
2022/07/02 04:24:08;;;;;;;9.43;3.92;;;;;;;;;;5037744;28;20021;-71
2022/07/02 04:26:34;;;;;;;12.70;3.28;;;;;;;;;;5052999;28;20029;-71
2022/07/02 04:29:01;;;;;;;15.95;3.10;;;;;;;;;;5040550;28;20386;-71
2022/07/02 04:31:27;;;;;;;10.82;3.13;;;;;;;;;;5031928;28;20026;-71
2022/07/02 04:33:53;;;;;;;10.68;3.35;;;;;;;;;;5035812;28;20033;-76
2022/07/02 04:36:19;;;;;;;9.90;3.35;;;;;;;;;;5022264;28;20029;-73
2022/07/02 04:38:45;;;;;;;8.15;3.53;;;;;;;;;;5028248;28;21658;-73
2022/07/02 04:41:11;;;;;;;9.40;3.22;;;;;;;;;;5046689;28;20048;-73
2022/07/02 04:43:37;;;;;;;7.63;3.10;;;;;;;;;;5065757;28;20056;-83
2022/07/02 04:46:04;;;;;;;13.10;3.38;;;;;;;;;;5052511;28;20112;-76
2022/07/02 04:48:30;;;;;;;7.97;3.40;;;;;;;;;;5052908;28;20029;-83
2022/07/02 04:50:56;;;;;;;15.85;4.00;;;;;;;;;;5060429;28;20067;-77
2022/07/02 04:53:22;;;;;;;11.35;3.63;;;;;;;;;;5053544;28;20032;-74
2022/07/02 04:55:48;;;;;;;9.65;3.38;;;;;;;;;;5042001;28;20032;-73
2022/07/02 04:58:14;;;;;;;26.63;5.07;;;;;;;;;;5039598;28;20049;-69
2022/07/02 05:03:35;;;;;;;25.73;8.80;;;;;;;;;;5243340;23;20132;-74
2022/07/02 05:06:01;;;;;;;19.52;9.40;;;;;;;;;;5005886;28;20053;-79
2022/07/02 05:08:27;;;;;;;21.63;9.65;;;;;;;;;;5019260;28;20383;-77
2022/07/02 05:10:53;;;;;;;26.48;10.68;;;;;;;;;;5018073;28;20025;-73
2022/07/02 05:13:21;;;;;;;20.63;10.65;;;;;;;;;;5020144;28;20025;-78
2022/07/02 05:15:47;;;;;;;23.42;8.85;;;;;;;;;;5029249;28;20023;-74
2022/07/02 05:18:13;;;;;;;24.75;8.73;;;;;;;;;;5017314;28;20379;-71
2022/07/02 05:20:40;;;;;;;24.35;10.98;;;;;;;;;;5021431;28;20030;-72
2022/07/02 05:23:06;;;;;;;24.80;11.70;;;;;;;;;;5017532;28;20080;-73
2022/07/02 05:25:32;;;;;;;27.30;12.95;;;;;;;;;;5019131;28;20067;-73
2022/07/02 05:27:58;;;;;;;21.70;11.07;;;;;;;;;;5021744;28;20040;-74
2022/07/02 05:30:24;;;;;;;20.42;10.70;;;;;;;;;;5018427;28;20033;-75
2022/07/02 05:32:50;;;;;;;27.83;11.40;;;;;;;;;;5015200;28;20046;-76
2022/07/02 05:35:16;;;;;;;22.55;11.70;;;;;;;;;;5021605;28;20084;-81
2022/07/02 05:37:43;;;;;;;23.30;11.57;;;;;;;;;;5019099;28;20407;-76
2022/07/02 05:40:10;;;;;;;25.73;11.02;;;;;;;;;;5021922;28;20034;-73
2022/07/02 05:42:36;;;;;;;21.35;9.60;;;;;;;;;;5019412;28;20036;-75
2022/07/02 05:45:02;;;;;;;18.10;8.63;;;;;;;;;;5019810;28;20052;-73
2022/07/02 05:47:28;;;;;;;16.90;8.65;;;;;;;;;;5023298;28;20109;-72
2022/07/02 05:49:55;;;;;;;17.23;7.55;;;;;;;;;;5035179;28;20075;-79
2022/07/02 05:52:21;;;;;;;13.93;7.10;;;;;;;;;;5029300;28;20044;-85
2022/07/02 05:54:48;;;;;;;15.18;7.30;;;;;;;;;;5011025;28;20052;-82
2022/07/02 05:57:14;;;;;;;19.23;8.40;;;;;;;;;;5017018;28;20042;-79
2022/07/02 06:03:20;;;;;;;12.40;6.70;;;;;;;;;;4946098;28;20087;-75
2022/07/02 06:08:30;;;;;;;12.73;7.40;;;;;;;;;;4953351;28;20039;-78
2022/07/02 06:10:56;;;;;;;14.23;6.93;;;;;;;;;;4956351;28;20027;-73
2022/07/02 06:13:23;;;;;;;13.35;7.68;;;;;;;;;;4955492;28;20062;-74
2022/07/02 06:15:49;;;;;;;11.20;5.90;;;;;;;;;;4951863;28;20397;-71
2022/07/02 06:18:15;;;;;;;11.07;5.40;;;;;;;;;;4950385;28;20027;-82
2022/07/02 06:20:41;;;;;;;7.20;4.90;;;;;;;;;;4953164;28;20057;-75
2022/07/02 06:23:07;;;;;;;15.10;5.45;;;;;;;;;;4958585;28;20054;-75
2022/07/02 06:25:33;;;;;;;10.90;5.88;;;;;;;;;;4957302;28;20041;-75
2022/07/02 06:28:00;;;;;;;9.98;5.30;;;;;;;;;;4958074;28;20408;-79
2022/07/02 06:30:27;;;;;;;11.25;5.78;;;;;;;;;;4958164;28;20136;-85
2022/07/02 06:32:53;;;;;;;9.35;5.10;;;;;;;;;;4935782;28;20069;-74
2022/07/02 06:35:19;;;;;;;13.27;6.10;;;;;;;;;;4955429;28;20031;-76
2022/07/02 06:37:45;;;;;;;9.07;5.57;;;;;;;;;;4931214;29;20087;-76
2022/07/02 06:40:11;;;;;;;11.82;5.97;;;;;;;;;;5004167;28;20121;-75
2022/07/02 06:42:37;;;;;;;13.85;5.25;;;;;;;;;;5036866;28;20033;-74
2022/07/02 06:45:03;;;;;;;11.00;5.13;;;;;;;;;;5037172;28;20029;-75
2022/07/02 06:47:33;;;;;;;7.70;4.70;;;;;;;;;;5040115;28;20033;-77
2022/07/02 06:50:00;;;;;;;12.73;5.05;;;;;;;;;;5045330;28;20025;-74
2022/07/02 06:52:47;;;;;;;10.27;4.55;;;;;;;;;;5033857;28;20049;-75
2022/07/02 06:55:14;;;;;;;12.00;5.30;;;;;;;;;;5057194;28;20076;-75
2022/07/02 06:57:40;;;;;;;14.65;5.80;;;;;;;;;;5032576;28;20037;-77
2022/07/02 07:00:08;;;;;;;12.65;7.18;;;;;;;;;;5010648;28;20030;-76
2022/07/02 07:02:34;;;;;;;21.73;7.85;;;;;;;;;;5029465;28;22258;-75
2022/07/02 07:05:00;;;;;;;11.85;6.50;;;;;;;;;;5029354;28;20147;-76
2022/07/02 07:07:29;;;;;;;9.68;6.30;;;;;;;;;;5044055;28;20030;-78
2022/07/02 07:09:56;;;;;;;10.40;6.00;;;;;;;;;;5037414;28;20764;-74
2022/07/02 07:12:22;;;;;;;9.48;5.28;;;;;;;;;;5025431;28;20479;-74
2022/07/02 07:14:48;;;;;;;13.93;5.85;;;;;;;;;;5033609;28;20030;-72
2022/07/02 07:17:17;;;;;;;10.88;5.80;;;;;;;;;;5029850;28;20049;-78
2022/07/02 07:19:45;;;;;;;10.10;5.95;;;;;;;;;;5049813;28;20029;-77
2022/07/02 07:22:17;;;;;;;11.35;5.78;;;;;;;;;;5035734;28;20467;-72
2022/07/02 07:24:44;;;;;;;11.38;6.40;;;;;;;;;;5020267;28;20033;-74
2022/07/02 07:27:10;;;;;;;10.70;5.68;;;;;;;;;;5020578;28;20157;-75
2022/07/02 07:29:36;;;;;;;10.13;5.35;;;;;;;;;;5023574;28;20042;-76
2022/07/02 07:32:02;;;;;;;11.48;5.47;;;;;;;;;;5017809;28;20030;-79
2022/07/02 07:34:28;;;;;;;11.65;6.03;;;;;;;;;;5017125;28;20259;-84
2022/07/02 07:36:55;;;;;;;8.18;5.47;;;;;;;;;;5024168;28;20045;-86
2022/07/02 07:39:21;;;;;;;12.60;5.38;;;;;;;;;;5005319;28;20057;-83
2022/07/02 07:41:48;;;;;;;8.45;5.05;;;;;;;;;;5024064;28;20119;-87
2022/07/02 07:44:14;;;;;;;8.27;4.72;;;;;;;;;;5031634;28;20029;-85
2022/07/02 07:46:40;;;;;;;7.03;4.50;;;;;;;;;;5010227;28;20133;-76
2022/07/02 07:49:06;;;;;;;11.07;4.50;;;;;;;;;;5022287;28;20025;-76
2022/07/02 07:51:32;;;;;;;9.23;4.22;;;;;;;;;;5033069;28;20486;-81
2022/07/02 07:53:58;;;;;;;9.27;4.20;;;;;;;;;;5031295;28;20048;-82
2022/07/02 07:56:24;;;;;;;6.97;4.20;;;;;;;;;;5021139;28;20053;-78
2022/07/02 07:58:50;;;;;;;7.70;4.15;;;;;;;;;;5019841;28;20025;-81
2022/07/02 08:01:16;;;;;;;6.55;3.83;;;;;;;;;;5021275;28;20029;-72
2022/07/02 08:03:43;;;;;;;8.43;3.65;;;;;;;;;;5024310;28;20037;-79
2022/07/02 08:06:09;;;;;;;9.00;3.65;;;;;;;;;;5024271;28;20472;-80
2022/07/02 08:08:35;;;;;;;8.50;3.75;;;;;;;;;;5025700;28;20029;-80
2022/07/02 08:11:03;;;;;;;9.80;3.40;;;;;;;;;;5038014;28;20021;-85
2022/07/02 08:13:29;;;;;;;10.60;3.85;;;;;;;;;;5026637;28;20491;-76
2022/07/02 08:15:55;;;;;;;9.27;3.38;;;;;;;;;;5020476;28;20025;-77
2022/07/02 08:18:24;;;;;;;19.02;3.65;;;;;;;;;;5031868;28;20061;-85
2022/07/02 08:20:50;;;;;;;9.05;3.80;;;;;;;;;;5006842;28;20018;-80
2022/07/02 08:23:16;;;;;;;22.35;11.20;;;;;;;;;;5020875;28;20026;-77
2022/07/02 08:25:45;;;;;;;11.88;3.40;;;;;;;;;;5032210;28;20068;-81
2022/07/02 08:28:11;;;;;;;7.75;4.15;;;;;;;;;;5029863;28;20382;-88
2022/07/02 08:30:38;;;;;;;9.77;3.85;;;;;;;;;;5023786;28;20061;-77
2022/07/02 08:33:04;;;;;;;10.75;3.60;;;;;;;;;;5019563;28;20029;-72
2022/07/02 08:35:31;;;;;;;14.13;3.72;;;;;;;;;;5039599;28;20025;-74
2022/07/02 08:37:57;;;;;;;19.38;3.47;;;;;;;;;;5035143;28;20025;-74
2022/07/02 08:40:27;;;;;;;7.45;3.33;;;;;;;;;;5049913;28;20025;-72
2022/07/02 08:42:53;;;;;;;6.32;3.00;;;;;;;;;;5031131;28;20391;-72
2022/07/02 08:45:21;;;;;;;7.47;3.10;;;;;;;;;;5020500;28;20021;-70
2022/07/02 08:47:48;;;;;;;34.40;4.70;;;;;;;;;;5051290;28;20079;-71
2022/07/02 08:50:16;;;;;;;8.65;3.05;;;;;;;;;;5030079;28;20033;-73
2022/07/02 08:52:42;;;;;;;8.43;3.03;;;;;;;;;;5036583;28;20037;-71
2022/07/02 08:55:09;;;;;;;13.10;3.22;;;;;;;;;;5022578;28;20519;-74
2022/07/02 08:57:37;;;;;;;6.80;2.90;;;;;;;;;;5033040;28;20052;-79
2022/07/02 09:00:03;;;;;;;7.65;3.38;;;;;;;;;;5026753;28;20027;-78
2022/07/02 09:02:31;;;;;;;6.22;3.00;;;;;;;;;;5028830;28;20047;-86
2022/07/02 09:04:58;;;;;;;8.77;3.28;;;;;;;;;;5021476;28;20486;-75
2022/07/02 09:07:30;;;;;;;6.03;2.90;;;;;;;;;;5026243;28;20463;-73
2022/07/02 09:09:58;;;;;;;7.50;2.85;;;;;;;;;;5025048;28;20082;-75
2022/07/02 09:12:30;;;;;;;6.13;2.88;;;;;;;;;;5032098;28;20042;-71
2022/07/02 09:14:56;;;;;;;8.57;3.53;;;;;;;;;;5036818;28;20074;-74
2022/07/02 09:17:22;;;;;;;8.82;3.17;;;;;;;;;;5019623;28;20487;-74
2022/07/02 09:19:58;;;;;;;7.90;3.30;;;;;;;;;;5049591;28;20631;-78
2022/07/02 09:22:31;;;;;;;5.55;2.88;;;;;;;;;;5026116;28;20455;-72
2022/07/02 09:28:28;;;;;;;7.25;2.70;;;;;;;;;;4941905;28;20050;-71
2022/07/02 09:31:02;;;;;;;6.95;3.00;;;;;;;;;;4936055;29;20083;-72
2022/07/02 09:33:28;;;;;;;7.20;2.60;;;;;;;;;;4940269;29;20127;-76
2022/07/02 09:36:23;;;;;;;8.95;6.05;;;;;;;;;;4934000;29;20075;-77
2022/07/02 09:39:00;;;;;;;11.80;5.50;;;;;;;;;;4919413;29;20039;-71
2022/07/02 09:41:26;;;;;;;10.52;3.88;;;;;;;;;;4891015;29;20043;-72
2022/07/02 09:44:03;;;;;;;11.50;3.17;;;;;;;;;;4936964;29;20028;-77
2022/07/02 09:46:48;;;;;;;5.32;3.00;;;;;;;;;;4933361;29;20078;-72
2022/07/02 09:49:18;;;;;;;7.07;2.90;;;;;;;;;;4924542;29;20063;-77
2022/07/02 09:51:51;;;;;;;6.82;2.90;;;;;;;;;;4909337;29;20045;-69
2022/07/02 09:54:17;;;;;;;;;;;;;;;;;;4930460;29;20028;-79
2022/07/02 09:56:50;;;;;;;6.97;2.92;;;;;;;;;;4925862;29;19910;-78
2022/07/02 09:59:16;;;;;;;;;;;;;;;;;;4965035;28;20092;-78
2022/07/02 10:01:45;;;;;;;20.02;3.58;;;;;;;;;;4978483;28;20322;-79
2022/07/02 10:04:13;;;;;;;11.13;3.15;;;;;;;;;;4982454;28;20070;-78
2022/07/02 10:06:39;;;;;;;13.68;3.72;;;;;;;;;;5015926;28;20481;-78
2022/07/02 10:09:06;;;;;;;15.73;3.25;;;;;;;;;;5025553;28;20021;-79
2022/07/02 10:11:33;;;;;;;13.82;3.50;;;;;;;;;;5016769;28;20041;-77
2022/07/02 10:13:59;;;;;;;11.45;2.80;;;;;;;;;;5017858;28;20026;-82
2022/07/02 10:16:27;;;;;;;10.07;2.97;;;;;;;;;;5017794;28;20028;-76
2022/07/02 10:18:54;;;;;;;4.65;2.50;;;;;;;;;;5030518;28;20026;-77
2022/07/02 10:21:21;;;;;;;15.93;3.08;;;;;;;;;;5024452;28;20109;-80
2022/07/02 10:23:47;;;;;;;8.27;2.90;;;;;;;;;;5026401;28;20434;-80
2022/07/02 10:26:13;;;;;;;12.30;3.08;;;;;;;;;;5019911;28;20021;-78
2022/07/02 10:28:39;;;;;;;11.30;3.08;;;;;;;;;;5030481;28;20068;-71
2022/07/02 10:31:12;;;;;;;14.63;4.03;;;;;;;;;;5021058;28;20021;-73
2022/07/02 10:33:52;;;;;;;9.00;2.95;;;;;;;;;;5016360;28;20040;-76
2022/07/02 10:36:19;;;;;;;6.40;2.72;;;;;;;;;;5013895;28;20481;-80
2022/07/02 10:38:47;;;;;;;6.68;2.80;;;;;;;;;;5025343;28;20117;-74
2022/07/02 10:41:13;;;;;;;4.10;2.70;;;;;;;;;;5026789;28;20016;-74
2022/07/02 10:43:45;;;;;;;12.00;3.28;;;;;;;;;;5025583;28;20483;-74
2022/07/02 10:46:13;;;;;;;7.30;3.10;;;;;;;;;;5023908;28;20482;-75
2022/07/02 10:49:04;;;;;;;10.63;3.60;;;;;;;;;;5019362;28;20030;-81
2022/07/02 10:51:33;;;;;;;10.65;3.28;;;;;;;;;;4993562;28;20515;-79
2022/07/02 10:54:01;;;;;;;9.13;3.35;;;;;;;;;;4992086;28;20058;-74
2022/07/02 10:56:28;;;;;;;12.40;3.22;;;;;;;;;;4975613;28;20070;-73
2022/07/02 10:59:00;;;;;;;30.13;4.80;;;;;;;;;;4992159;28;20180;-77
2022/07/02 11:01:28;;;;;;;17.98;3.30;;;;;;;;;;4997568;28;20567;-74
2022/07/02 11:03:54;;;;;;;7.32;2.78;;;;;;;;;;4977186;28;20121;-75
2022/07/02 11:06:21;;;;;;;9.00;3.50;;;;;;;;;;4991534;28;20030;-79
2022/07/02 11:09:06;;;;;;;3.72;2.60;;;;;;;;;;4990590;28;20491;-79
2022/07/02 11:11:35;;;;;;;4.63;2.83;;;;;;;;;;4984464;28;20069;-78
2022/07/02 11:14:05;;;;;;;6.53;2.72;;;;;;;;;;4993501;28;20069;-77
2022/07/02 11:16:38;;;;;;;9.70;3.30;;;;;;;;;;5011005;28;20060;-80
2022/07/02 11:19:05;;;;;;;8.55;3.40;;;;;;;;;;5023257;28;20100;-80
2022/07/02 11:21:32;;;;;;;7.07;2.97;;;;;;;;;;5024792;28;20483;-75
2022/07/02 11:24:10;;;;;;;4.68;2.65;;;;;;;;;;5029493;28;20025;-76
2022/07/02 11:26:43;;;;;;;7.97;2.80;;;;;;;;;;4977213;28;20122;-77
2022/07/02 11:29:12;;;;;;;12.23;3.67;;;;;;;;;;4966194;28;20038;-80
2022/07/02 11:31:39;;;;;;;8.70;3.22;;;;;;;;;;4978919;28;20531;-73
2022/07/02 11:34:06;;;;;;;6.55;3.08;;;;;;;;;;4974356;28;20110;-79
2022/07/02 11:36:32;;;;;;;6.45;3.00;;;;;;;;;;4973616;28;20081;-77
2022/07/02 11:38:59;;;;;;;12.70;3.58;;;;;;;;;;4983864;28;20244;-74
2022/07/02 11:41:25;;;;;;;19.10;4.07;;;;;;;;;;4979475;28;20050;-79
2022/07/02 11:43:54;;;;;;;8.35;2.92;;;;;;;;;;4976656;28;20062;-73
2022/07/02 11:46:28;;;;;;;12.15;3.22;;;;;;;;;;4975377;28;20034;-78
2022/07/02 11:48:56;;;;;;;8.13;3.28;;;;;;;;;;4977509;28;20365;-79
2022/07/02 11:51:24;;;;;;;8.07;3.00;;;;;;;;;;4975955;28;20059;-72
2022/07/02 11:56:58;;;;;;;12.20;3.63;;;;;;;;;;4990949;28;20279;-73
2022/07/02 11:59:25;;;;;;;9.20;3.40;;;;;;;;;;5013496;28;20052;-76
2022/07/02 12:01:52;;;;;;;10.98;4.10;;;;;;;;;;5023004;28;20053;-79
2022/07/02 12:04:20;;;;;;;18.08;5.30;;;;;;;;;;5019579;28;20049;-77
2022/07/02 12:06:51;;;;;;;12.32;5.00;;;;;;;;;;5002495;28;20018;-74
2022/07/02 12:09:26;;;;;;;14.82;4.05;;;;;;;;;;5021661;28;20064;-76
2022/07/02 12:11:56;;;;;;;7.00;3.78;;;;;;;;;;5016423;28;20081;-71
2022/07/02 12:14:28;;;;;;;7.78;3.20;;;;;;;;;;5024056;28;20387;-76
2022/07/02 12:16:58;;;;;;;13.20;3.70;;;;;;;;;;5022937;28;20096;-73
2022/07/02 12:19:32;;;;;;;6.53;3.75;;;;;;;;;;5020730;28;20033;-71
2022/07/02 12:21:58;;;;;;;7.90;3.50;;;;;;;;;;5031157;28;20498;-71
2022/07/02 12:24:51;;;;;;;9.95;3.72;;;;;;;;;;5019075;28;20076;-76
2022/07/02 12:27:17;;;;;;;7.00;3.35;;;;;;;;;;5007798;28;20038;-72
2022/07/02 12:32:51;;;;;;;6.72;3.45;;;;;;;;;;4913366;29;20056;-73
2022/07/02 12:35:17;;;;;;;9.98;3.78;;;;;;;;;;4911841;29;20029;-72
2022/07/02 12:37:44;;;;;;;8.75;3.50;;;;;;;;;;4911690;29;20032;-74
2022/07/02 12:40:15;;;;;;;11.07;3.47;;;;;;;;;;4915764;29;20036;-75
2022/07/02 12:42:48;;;;;;;19.52;4.40;;;;;;;;;;4915669;29;20032;-75
2022/07/02 12:45:15;;;;;;;;;;;;;;;;;;4905230;29;20040;-74
2022/07/02 12:47:41;;;;;;;15.18;3.80;;;;;;;;;;4915122;29;20032;-75
2022/07/02 12:50:11;;;;;;;7.75;3.42;;;;;;;;;;4913712;29;20039;-71
2022/07/02 12:55:52;;;;;;;8.55;3.70;;;;;;;;;;4931190;29;20119;-70
2022/07/02 13:01:06;;;;;;;6.72;3.33;;;;;;;;;;4895531;29;20021;-75
2022/07/02 13:03:32;;;;;;;7.20;3.28;;;;;;;;;;4897246;29;20072;-74
2022/07/02 13:06:22;;;;;;;5.95;3.58;;;;;;;;;;4904145;28;20071;-72
2022/07/02 13:08:48;;;;;;;9.30;3.70;;;;;;;;;;4873732;29;20506;-72
2022/07/02 13:11:14;;;;;;;6.35;3.20;;;;;;;;;;4893831;29;20064;-77
2022/07/02 13:14:07;;;;;;;7.88;3.45;;;;;;;;;;4891023;29;20047;-77
2022/07/02 13:16:36;;;;;;;8.48;3.22;;;;;;;;;;4871610;29;20500;-73
2022/07/02 13:19:03;;;;;;;5.95;3.22;;;;;;;;;;4879722;29;20033;-74
2022/07/02 13:21:30;;;;;;;8.35;3.53;;;;;;;;;;4895545;29;20099;-74
2022/07/02 13:23:56;;;;;;;9.80;3.20;;;;;;;;;;4895831;29;20029;-73
2022/07/02 13:26:22;;;;;;;9.02;3.17;;;;;;;;;;4895094;29;20048;-76
2022/07/02 13:28:48;;;;;;;7.80;3.60;;;;;;;;;;4888645;29;20119;-75
2022/07/02 13:31:32;;;;;;;10.13;3.60;;;;;;;;;;4895202;29;20637;-75
2022/07/02 13:34:00;;;;;;;7.80;3.50;;;;;;;;;;4896847;29;20069;-74
2022/07/02 13:36:26;;;;;;;8.13;3.60;;;;;;;;;;4893728;29;20111;-71
2022/07/02 13:38:53;;;;;;;6.80;3.92;;;;;;;;;;4909587;29;20068;-72
2022/07/02 13:41:19;;;;;;;5.78;3.47;;;;;;;;;;4914386;29;20075;-74
2022/07/02 13:43:46;;;;;;;8.07;3.95;;;;;;;;;;4913761;29;20055;-72
2022/07/02 13:46:12;;;;;;;7.28;3.60;;;;;;;;;;4969307;28;20073;-72
2022/07/02 13:48:38;;;;;;;9.20;4.05;;;;;;;;;;4992929;28;20089;-76
2022/07/02 13:51:04;;;;;;;7.82;3.95;;;;;;;;;;4993740;28;20088;-79
2022/07/02 13:53:30;;;;;;;13.60;3.92;;;;;;;;;;4993974;28;20442;-75
2022/07/02 13:55:56;;;;;;;12.35;4.20;;;;;;;;;;4999427;28;20373;-72
2022/07/02 13:58:28;;;;;;;8.52;3.97;;;;;;;;;;4999730;28;20030;-76
2022/07/02 14:01:19;;;;;;;9.55;3.55;;;;;;;;;;5003598;28;20451;-71
2022/07/02 14:03:45;;;;;;;15.00;4.75;;;;;;;;;;4997506;28;20558;-72
2022/07/02 14:06:11;;;;;;;7.07;3.75;;;;;;;;;;5017768;28;20421;-75
2022/07/02 14:08:37;;;;;;;5.38;3.50;;;;;;;;;;5019725;28;20130;-75
2022/07/02 14:11:03;;;;;;;6.88;3.30;;;;;;;;;;5014441;28;20026;-76
2022/07/02 14:13:29;;;;;;;13.90;3.88;;;;;;;;;;5012359;28;20108;-71
2022/07/02 14:16:23;;;;;;;8.55;3.67;;;;;;;;;;5019255;28;20091;-74
2022/07/02 14:18:58;;;;;;;6.55;3.92;;;;;;;;;;4993109;28;20103;-72
2022/07/02 14:21:24;;;;;;;10.68;4.15;;;;;;;;;;5019497;28;20030;-73
2022/07/02 14:23:50;;;;;;;21.98;4.72;;;;;;;;;;5026335;28;20025;-71
2022/07/02 14:26:16;;;;;;;18.75;4.57;;;;;;;;;;5027397;28;20037;-75
2022/07/02 14:28:42;;;;;;;73.80;8.13;;;;;;;;;;5023191;28;20029;-74
2022/07/02 14:34:30;;;;;;;11.25;4.10;;;;;;;;;;5015004;28;20037;-74
2022/07/02 14:36:56;;;;;;;6.15;3.50;;;;;;;;;;5018314;28;20034;-71
2022/07/02 14:42:41;;;;;;;19.85;4.05;;;;;;;;;;4993809;28;20121;-69
2022/07/02 14:45:07;;;;;;;100.63;10.82;;;;;;;;;;5006293;28;20109;-69
2022/07/02 14:47:33;;;;;;;22.20;4.70;;;;;;;;;;4995443;28;20530;-70
2022/07/02 14:49:59;;;;;;;7.47;3.97;;;;;;;;;;5008522;28;20530;-74
2022/07/02 14:55:43;;;;;;;8.10;3.65;;;;;;;;;;4930187;29;20094;-72
2022/07/02 14:58:09;;;;;;;8.80;3.70;;;;;;;;;;4930698;29;20103;-73
2022/07/02 15:00:35;;;;;;;6.22;3.75;;;;;;;;;;4929009;29;20035;-70
2022/07/02 15:03:02;;;;;;;14.00;3.97;;;;;;;;;;4932302;28;20375;-76
2022/07/02 15:05:28;;;;;;;12.25;3.88;;;;;;;;;;4916636;29;20397;-72
2022/07/02 15:07:55;;;;;;;19.15;4.50;;;;;;;;;;4919840;29;20092;-71
2022/07/02 15:10:21;;;;;;;24.42;5.22;;;;;;;;;;4916913;29;20025;-73
2022/07/02 15:12:47;;;;;;;21.98;4.75;;;;;;;;;;4916541;29;20051;-73
2022/07/02 15:17:58;;;;;;;9.63;3.75;;;;;;;;;;4916547;29;20463;-72
2022/07/02 15:20:24;;;;;;;10.40;3.60;;;;;;;;;;4933119;29;20059;-72